Spirit Of Baltimore — WDE9403 — position and weather

sailwx.info

Track history (hours):
 
Tides and Currents Weather Stations Pressure Air Temp Water Temp Dewpoint Dewpoint Depression Visibility Wind Speed Wind Dir Waves Ship Positions

Spirit Of Baltimore

Owner: Spirit Cruises, LLC, Baltimore, MD. More information available from US FCC via Universal Licensing System and Coast Guard Vessel Documentation Center.

Last reported at 2017-Dec-11 00:29 UTC. Time now 2017-Dec-12 19:47 UTC.
Position N 39°17' W 076°37'.

Length 40 m; draft 1.6 m.

Type: Passenger vessel. MMSI: 367416810.

Date/timePositionNaut miles runAvg speedWind from/ knotsBaromVisibWave heightAir tempDewpointWater temp
2017-Dec-11 00:29N 39°17' W 076°37'1 3.1
2017-Dec-11 00:00N 39°16' W 076°35'3 6.1
2017-Dec-10 23:30N 39°14' W 076°33'0 0.3
2017-Dec-10 23:00N 39°14' W 076°33'3 5.5
2017-Dec-10 22:30N 39°16' W 076°35'2 3.7
2017-Dec-10 21:59N 39°17' W 076°37'0 0.0
2017-Dec-10 21:30N 39°17' W 076°37'0 0.0
2017-Dec-10 20:59N 39°17' W 076°37'0 0.0
2017-Dec-10 20:30N 39°17' W 076°37'0 0.0
2017-Dec-10 20:00N 39°17' W 076°37'0 0.0
2017-Dec-10 19:29N 39°17' W 076°37'0 0.0
2017-Dec-10 19:00N 39°17' W 076°37'1 2.9
2017-Dec-10 18:30N 39°16' W 076°35'2 3.4
2017-Dec-10 18:00N 39°15' W 076°33'2 3.3
2017-Dec-10 17:30N 39°16' W 076°35'1 3.0
2017-Dec-10 17:00N 39°17' W 076°37'0 0.0
2017-Dec-10 16:30N 39°17' W 076°37'0 0.0
2017-Dec-10 16:00N 39°17' W 076°37'0 0.0
2017-Dec-10 03:11N 39°17' W 076°37'0 0.0
2017-Dec-10 03:00N 39°17' W 076°37'2 3.2
2017-Dec-10 02:31N 39°16' W 076°35'2 3.8
2017-Dec-10 02:00N 39°15' W 076°33'1 2.2
2017-Dec-10 01:30N 39°14' W 076°33'2 3.7
2017-Dec-10 01:00N 39°15' W 076°34'2 3.8
2017-Dec-10 00:30N 39°17' W 076°36'1 1.5
2017-Dec-09 23:59N 39°17' W 076°37'0 0.0
2017-Dec-09 23:29N 39°17' W 076°37'0 0.0
2017-Dec-09 23:00N 39°17' W 076°37'0 0.0
2017-Dec-09 22:23N 39°17' W 076°37'0 0.0
2017-Dec-09 21:56N 39°17' W 076°37'1 2.8
2017-Dec-09 21:30N 39°17' W 076°35'3 6.5
2017-Dec-09 21:00N 39°14' W 076°33'3 5.4
2017-Dec-09 20:30N 39°16' W 076°35'2 3.4
2017-Dec-09 20:00N 39°17' W 076°37'0 0.0
2017-Dec-09 19:30N 39°17' W 076°37'0 0.0
2017-Dec-09 18:59N 39°17' W 076°37'0 0.0
2017-Dec-09 18:30N 39°17' W 076°37'2 4.9
2017-Dec-09 18:00N 39°15' W 076°34'2 3.1
2017-Dec-09 17:30N 39°14' W 076°33'3 6.5
2017-Dec-09 17:01N 39°17' W 076°36'1 1.5
2017-Dec-09 16:30N 39°17' W 076°37'0 0.0
2017-Dec-09 15:58N 39°17' W 076°37'0 0.0
2017-Dec-09 15:28N 39°17' W 076°37'0 0.0
2017-Dec-09 03:10N 39°17' W 076°37'0 0.0
2017-Dec-09 03:00N 39°17' W 076°37'2 4.7
2017-Dec-09 02:30N 39°16' W 076°34'2 3.6
2017-Dec-09 02:00N 39°14' W 076°33'1 1.7
2017-Dec-09 01:30N 39°14' W 076°32'3 5.1
2017-Dec-09 01:00N 39°15' W 076°34'2 3.4
2017-Dec-09 00:30N 39°17' W 076°36'1 1.5
2017-Dec-09 00:00N 39°17' W 076°37'0 0.0
2017-Dec-08 23:30N 39°17' W 076°37'0 0.0
2017-Dec-08 23:00N 39°17' W 076°37'0 0.0
2017-Dec-08 02:33N 39°17' W 076°37'0 0.0
2017-Dec-08 02:30N 39°17' W 076°37'2 4.2
2017-Dec-08 02:00N 39°15' W 076°35'1 2.2
2017-Dec-08 01:30N 39°15' W 076°33'3 6.2
2017-Dec-08 01:01N 39°13' W 076°31'4 7.5
2017-Dec-08 00:30N 39°16' W 076°34'  
2017-Dec-03 03:15N 39°17' W 076°37'0 0.0
2017-Dec-03 03:00N 39°17' W 076°37'2 3.6
2017-Dec-03 02:30N 39°16' W 076°35'3 5.1
2017-Dec-03 02:00N 39°14' W 076°33'2 3.1
2017-Dec-03 01:29N 39°13' W 076°31'3 5.4
2017-Dec-03 01:00N 39°15' W 076°34'3 5.5
2017-Dec-03 00:30N 39°17' W 076°36'1 1.1
2017-Dec-03 00:00N 39°17' W 076°37'0 0.0
2017-Dec-02 23:30N 39°17' W 076°37'0 0.0
2017-Dec-02 23:00N 39°17' W 076°37'0 0.0
2017-Dec-02 22:30N 39°17' W 076°37'0 0.0
2017-Dec-02 22:00N 39°17' W 076°37'0 0.0
2017-Dec-02 21:30N 39°17' W 076°37'0 0.1
2017-Dec-02 21:00N 39°17' W 076°37'0 0.1
2017-Dec-02 20:30N 39°17' W 076°37'0 0.0
2017-Dec-02 19:57N 39°17' W 076°37'0 0.0
2017-Dec-02 19:30N 39°17' W 076°37'0 0.0
2017-Dec-02 19:00N 39°17' W 076°37'0 0.0
2017-Dec-02 18:30N 39°17' W 076°37'2 4.1
2017-Dec-02 18:01N 39°16' W 076°34'3 6.9
2017-Dec-02 17:31N 39°13' W 076°32'3 5.1
2017-Dec-02 17:00N 39°15' W 076°34'3 5.9
2017-Dec-02 16:31N 39°17' W 076°37'0 0.1
2017-Dec-02 16:00N 39°17' W 076°37'0 0.0
2017-Dec-02 15:30N 39°17' W 076°37'0 0.0
2017-Dec-02 15:00N 39°17' W 076°37'0 0.0
2017-Dec-02 03:35N 39°17' W 076°37'0 0.1
2017-Dec-02 03:29N 39°17' W 076°37'0 0.0
2017-Dec-02 03:00N 39°17' W 076°37'1 1.9
2017-Dec-02 02:30N 39°17' W 076°36'1 2.5
2017-Dec-02 02:01N 39°15' W 076°35'2 3.8
2017-Dec-02 01:30N 39°15' W 076°33'2 4.2
2017-Dec-02 01:00N 39°13' W 076°32'4 7.5
2017-Dec-02 00:30N 39°16' W 076°35'2 3.6
2017-Dec-02 00:00N 39°17' W 076°37'0 0.0
2017-Dec-01 23:30N 39°17' W 076°37'  
Track history (hours):
 
Tides and Currents Weather Stations Pressure Air Temp Water Temp Dewpoint Dewpoint Depression Visibility Wind Speed Wind Dir Waves Ship Positions

Spirit Of Baltimore

Owner: Spirit Cruises, LLC, Baltimore, MD. More information available from US FCC via Universal Licensing System and Coast Guard Vessel Documentation Center.

Last reported at 2017-Dec-11 00:29 UTC. Time now 2017-Dec-12 19:47 UTC.
Position N 39°17' W 076°37'.

Length 40 m; draft 1.6 m.

Type: Passenger vessel. MMSI: 367416810.

Date/timePositionNaut miles runAvg speedWind from/ knotsBaromVisibWave heightAir tempDewpointWater temp
2017-Dec-11 00:29N 39°17' W 076°37'1 3.1
2017-Dec-11 00:00N 39°16' W 076°35'3 6.1
2017-Dec-10 23:30N 39°14' W 076°33'0 0.3
2017-Dec-10 23:00N 39°14' W 076°33'3 5.5
2017-Dec-10 22:30N 39°16' W 076°35'2 3.7
2017-Dec-10 21:59N 39°17' W 076°37'0 0.0
2017-Dec-10 21:30N 39°17' W 076°37'0 0.0
2017-Dec-10 20:59N 39°17' W 076°37'0 0.0
2017-Dec-10 20:30N 39°17' W 076°37'0 0.0
2017-Dec-10 20:00N 39°17' W 076°37'0 0.0
2017-Dec-10 19:29N 39°17' W 076°37'0 0.0
2017-Dec-10 19:00N 39°17' W 076°37'1 2.9
2017-Dec-10 18:30N 39°16' W 076°35'2 3.4
2017-Dec-10 18:00N 39°15' W 076°33'2 3.3
2017-Dec-10 17:30N 39°16' W 076°35'1 3.0
2017-Dec-10 17:00N 39°17' W 076°37'0 0.0
2017-Dec-10 16:30N 39°17' W 076°37'0 0.0
2017-Dec-10 16:00N 39°17' W 076°37'0 0.0
2017-Dec-10 03:11N 39°17' W 076°37'0 0.0
2017-Dec-10 03:00N 39°17' W 076°37'2 3.2
2017-Dec-10 02:31N 39°16' W 076°35'2 3.8
2017-Dec-10 02:00N 39°15' W 076°33'1 2.2
2017-Dec-10 01:30N 39°14' W 076°33'2 3.7
2017-Dec-10 01:00N 39°15' W 076°34'2 3.8
2017-Dec-10 00:30N 39°17' W 076°36'1 1.5
2017-Dec-09 23:59N 39°17' W 076°37'0 0.0
2017-Dec-09 23:29N 39°17' W 076°37'0 0.0
2017-Dec-09 23:00N 39°17' W 076°37'0 0.0
2017-Dec-09 22:23N 39°17' W 076°37'0 0.0
2017-Dec-09 21:56N 39°17' W 076°37'1 2.8
2017-Dec-09 21:30N 39°17' W 076°35'3 6.5
2017-Dec-09 21:00N 39°14' W 076°33'3 5.4
2017-Dec-09 20:30N 39°16' W 076°35'2 3.4
2017-Dec-09 20:00N 39°17' W 076°37'0 0.0
2017-Dec-09 19:30N 39°17' W 076°37'0 0.0
2017-Dec-09 18:59N 39°17' W 076°37'0 0.0
2017-Dec-09 18:30N 39°17' W 076°37'2 4.9
2017-Dec-09 18:00N 39°15' W 076°34'2 3.1
2017-Dec-09 17:30N 39°14' W 076°33'3 6.5
2017-Dec-09 17:01N 39°17' W 076°36'1 1.5
2017-Dec-09 16:30N 39°17' W 076°37'0 0.0
2017-Dec-09 15:58N 39°17' W 076°37'0 0.0
2017-Dec-09 15:28N 39°17' W 076°37'0 0.0
2017-Dec-09 03:10N 39°17' W 076°37'0 0.0
2017-Dec-09 03:00N 39°17' W 076°37'2 4.7
2017-Dec-09 02:30N 39°16' W 076°34'2 3.6
2017-Dec-09 02:00N 39°14' W 076°33'1 1.7
2017-Dec-09 01:30N 39°14' W 076°32'3 5.1
2017-Dec-09 01:00N 39°15' W 076°34'2 3.4
2017-Dec-09 00:30N 39°17' W 076°36'1 1.5
2017-Dec-09 00:00N 39°17' W 076°37'0 0.0
2017-Dec-08 23:30N 39°17' W 076°37'0 0.0
2017-Dec-08 23:00N 39°17' W 076°37'0 0.0
2017-Dec-08 02:33N 39°17' W 076°37'0 0.0
2017-Dec-08 02:30N 39°17' W 076°37'2 4.2
2017-Dec-08 02:00N 39°15' W 076°35'1 2.2
2017-Dec-08 01:30N 39°15' W 076°33'3 6.2
2017-Dec-08 01:01N 39°13' W 076°31'4 7.5
2017-Dec-08 00:30N 39°16' W 076°34'  
2017-Dec-03 03:15N 39°17' W 076°37'0 0.0
2017-Dec-03 03:00N 39°17' W 076°37'2 3.6
2017-Dec-03 02:30N 39°16' W 076°35'3 5.1
2017-Dec-03 02:00N 39°14' W 076°33'2 3.1
2017-Dec-03 01:29N 39°13' W 076°31'3 5.4
2017-Dec-03 01:00N 39°15' W 076°34'3 5.5
2017-Dec-03 00:30N 39°17' W 076°36'1 1.1
2017-Dec-03 00:00N 39°17' W 076°37'0 0.0
2017-Dec-02 23:30N 39°17' W 076°37'0 0.0
2017-Dec-02 23:00N 39°17' W 076°37'0 0.0
2017-Dec-02 22:30N 39°17' W 076°37'0 0.0
2017-Dec-02 22:00N 39°17' W 076°37'0 0.0
2017-Dec-02 21:30N 39°17' W 076°37'0 0.1
2017-Dec-02 21:00N 39°17' W 076°37'0 0.1
2017-Dec-02 20:30N 39°17' W 076°37'0 0.0
2017-Dec-02 19:57N 39°17' W 076°37'0 0.0
2017-Dec-02 19:30N 39°17' W 076°37'0 0.0
2017-Dec-02 19:00N 39°17' W 076°37'0 0.0
2017-Dec-02 18:30N 39°17' W 076°37'2 4.1
2017-Dec-02 18:01N 39°16' W 076°34'3 6.9
2017-Dec-02 17:31N 39°13' W 076°32'3 5.1
2017-Dec-02 17:00N 39°15' W 076°34'3 5.9
2017-Dec-02 16:31N 39°17' W 076°37'0 0.1
2017-Dec-02 16:00N 39°17' W 076°37'0 0.0
2017-Dec-02 15:30N 39°17' W 076°37'0 0.0
2017-Dec-02 15:00N 39°17' W 076°37'0 0.0
2017-Dec-02 03:35N 39°17' W 076°37'0 0.1
2017-Dec-02 03:29N 39°17' W 076°37'0 0.0
2017-Dec-02 03:00N 39°17' W 076°37'1 1.9
2017-Dec-02 02:30N 39°17' W 076°36'1 2.5
2017-Dec-02 02:01N 39°15' W 076°35'2 3.8
2017-Dec-02 01:30N 39°15' W 076°33'2 4.2
2017-Dec-02 01:00N 39°13' W 076°32'4 7.5
2017-Dec-02 00:30N 39°16' W 076°35'2 3.6
2017-Dec-02 00:00N 39°17' W 076°37'0 0.0
2017-Dec-01 23:30N 39°17' W 076°37'  

Dump ship's entire track history